Time;durP1;ratioP1;P1;durP2;ratioP2;P2;SDS_P1;SDS_P2;PMS_P1;PMS_P2;Temp;Humidity;BMP_temperature;BMP_pressure;BME280_temperature;BME280_humidity;BME280_pressure;Samples;Min_cycle;Max_cycle;Signal;HPM_P1;HPM_P2
2022/06/16 00:00:35;;;;;;;3.70;3.27;;;23.50;47.80;;;;;;5093071;28;20496;-73
2022/06/16 00:03:03;;;;;;;5.63;3.83;;;23.50;48.10;;;;;;5093039;28;20986;-73
2022/06/16 00:05:34;;;;;;;5.13;3.83;;;23.50;48.10;;;;;;5093012;28;20880;-73
2022/06/16 00:08:01;;;;;;;5.20;3.93;;;23.40;48.10;;;;;;5093342;28;20464;-73
2022/06/16 00:10:28;;;;;;;4.60;3.80;;;23.40;48.10;;;;;;5093325;28;20521;-73
2022/06/16 00:12:55;;;;;;;5.80;3.80;;;23.40;48.20;;;;;;5093150;28;20472;-73
2022/06/16 00:15:24;;;;;;;5.77;3.47;;;23.30;48.20;;;;;;5092953;28;20940;-73
2022/06/16 00:17:52;;;;;;;4.93;3.70;;;23.30;48.40;;;;;;5093274;28;20444;-73
2022/06/16 00:20:19;;;;;;;5.93;3.40;;;23.30;48.50;;;;;;5093489;28;20440;-73
2022/06/16 00:22:46;;;;;;;6.07;4.03;;;23.20;48.60;;;;;;5093114;28;20467;-73
2022/06/16 00:25:13;;;;;;;4.53;3.77;;;23.20;49.40;;;;;;5093521;28;20452;-73
2022/06/16 00:27:41;;;;;;;4.80;3.37;;;23.10;48.90;;;;;;5093275;28;20474;-73
2022/06/16 00:30:10;;;;;;;4.80;3.40;;;23.10;49.00;;;;;;5093441;28;20446;-73
2022/06/16 00:32:37;;;;;;;8.10;3.70;;;23.10;49.00;;;;;;5093051;28;20539;-73
2022/06/16 00:35:06;;;;;;;6.13;2.77;;;23.10;49.00;;;;;;5092732;28;20467;-73
2022/06/16 00:37:33;;;;;;;5.77;3.27;;;23.00;49.10;;;;;;5093795;28;20466;-73
2022/06/16 00:40:00;;;;;;;4.43;3.50;;;23.00;49.10;;;;;;5096230;28;20452;-73
2022/06/16 00:42:27;;;;;;;4.30;3.73;;;23.00;49.10;;;;;;5096571;28;20477;-73
2022/06/16 00:44:56;;;;;;;7.27;3.23;;;23.00;49.10;;;;;;5096454;28;20479;-72
2022/06/16 00:47:25;;;;;;;5.83;3.13;;;22.90;49.20;;;;;;5096423;28;20512;-73
2022/06/16 00:49:54;;;;;;;6.10;3.10;;;22.90;49.30;;;;;;5096469;28;20858;-73
2022/06/16 00:52:27;;;;;;;3.93;3.27;;;22.90;49.30;;;;;;5096288;28;20467;-73
2022/06/16 00:54:59;;;;;;;5.90;3.57;;;22.90;49.20;;;;;;5096302;28;20432;-73
2022/06/16 00:57:32;;;;;;;7.70;3.90;;;22.90;49.00;;;;;;5096042;28;20795;-73
2022/06/16 01:00:00;;;;;;;6.87;3.20;;;22.90;49.00;;;;;;5096069;28;20435;-73
2022/06/16 01:02:29;;;;;;;3.80;2.93;;;22.80;48.90;;;;;;5096089;28;20466;-73
2022/06/16 01:04:55;;;;;;;4.83;3.50;;;22.80;49.00;;;;;;5096154;28;20448;-73
2022/06/16 01:07:28;;;;;;;5.47;3.37;;;22.80;49.00;;;;;;5096021;28;20486;-73
2022/06/16 01:09:56;;;;;;;6.93;3.00;;;22.80;49.10;;;;;;5096185;28;20519;-73
2022/06/16 01:15:38;;;;;;;5.63;3.57;;;22.70;49.30;;;;;;5095924;28;20475;-73
2022/06/16 01:18:25;;;;;;;6.63;3.03;;;22.70;49.20;;;;;;5096088;28;20429;-73
2022/06/16 01:20:58;;;;;;;5.47;3.40;;;22.70;49.20;;;;;;5096033;28;20791;-73
2022/06/16 01:24:18;;;;;;;5.13;3.40;;;22.70;49.20;;;;;;5095931;28;20499;-73
2022/06/16 01:27:38;;;;;;;3.87;3.23;;;22.60;49.40;;;;;;5095873;28;20560;-73
2022/06/16 01:30:10;;;;;;;3.30;3.07;;;22.60;49.30;;;;;;5095498;28;20534;-73
2022/06/16 01:32:49;;;;;;;4.03;3.63;;;22.60;49.40;;;;;;5096241;28;20490;-73
2022/06/16 01:35:26;;;;;;;6.90;3.70;;;22.50;49.30;;;;;;5095289;28;20458;-73
2022/06/16 01:38:03;;;;;;;4.33;3.00;;;22.50;49.40;;;;;;5095569;28;20473;-73
2022/06/16 01:40:37;;;;;;;4.47;3.10;;;22.50;49.60;;;;;;5095515;28;20486;-73
2022/06/16 01:43:12;;;;;;;5.23;3.30;;;22.40;49.60;;;;;;5095127;28;20827;-73
2022/06/16 01:45:46;;;;;;;3.37;3.13;;;22.40;49.70;;;;;;5095506;28;20506;-73
2022/06/16 01:48:15;;;;;;;5.57;3.43;;;22.40;49.90;;;;;;5095026;28;20860;-73
2022/06/16 01:50:48;;;;;;;5.20;3.40;;;22.40;49.90;;;;;;5094053;28;20526;-72
2022/06/16 01:53:21;;;;;;;4.83;3.10;;;22.30;49.90;;;;;;5095238;28;20868;-72
2022/06/16 01:55:53;;;;;;;5.10;3.77;;;22.30;50.00;;;;;;5095747;28;20460;-72
2022/06/16 01:58:25;;;;;;;3.57;3.03;;;22.30;50.60;;;;;;5096543;28;20432;-72
2022/06/16 02:00:56;;;;;;;5.73;3.60;;;22.30;50.00;;;;;;5097520;28;20508;-73
2022/06/16 02:03:28;;;;;;;3.80;2.90;;;22.20;50.00;;;;;;5097820;28;20563;-73
2022/06/16 02:05:58;;;;;;;3.93;3.10;;;22.10;50.00;;;;;;5095144;28;20424;-72
2022/06/16 02:08:30;;;;;;;3.50;3.03;;;22.10;50.10;;;;;;5094894;28;20958;-72
2022/06/16 02:10:59;;;;;;;4.87;3.30;;;22.10;50.20;;;;;;5094964;28;20511;-72
2022/06/16 02:13:29;;;;;;;3.97;3.27;;;22.10;50.10;;;;;;5094790;28;20474;-73
2022/06/16 02:16:01;;;;;;;5.53;3.47;;;22.10;50.40;;;;;;5095068;28;20451;-73
2022/06/16 02:18:30;;;;;;;4.73;3.43;;;22.00;50.40;;;;;;5094514;28;20898;-73
2022/06/16 02:21:02;;;;;;;4.50;3.63;;;22.00;50.30;;;;;;5094670;28;20483;-73
2022/06/16 02:23:29;;;;;;;5.50;3.27;;;22.00;50.40;;;;;;5094654;28;20463;-72
2022/06/16 02:25:58;;;;;;;6.27;4.10;;;21.90;50.50;;;;;;5094517;28;20555;-72
2022/06/16 02:28:25;;;;;;;7.40;3.43;;;21.90;50.50;;;;;;5094451;28;20486;-72
2022/06/16 02:31:22;;;;;;;5.47;3.60;;;21.90;50.60;;;;;;5094076;28;20976;-72
2022/06/16 02:34:00;;;;;;;4.33;3.37;;;21.80;50.40;;;;;;5086809;28;20502;-72
2022/06/16 02:36:44;;;;;;;4.63;3.20;;;21.80;50.60;;;;;;5094080;28;20427;-72
2022/06/16 02:39:22;;;;;;;7.20;3.83;;;21.80;50.50;;;;;;5094104;28;20921;-72
2022/06/16 02:42:01;;;;;;;6.03;3.50;;;21.80;50.60;;;;;;5094005;28;20883;-72
2022/06/16 02:44:36;;;;;;;5.67;3.83;;;21.70;50.60;;;;;;5093952;28;20897;-72
2022/06/16 02:47:13;;;;;;;6.13;3.90;;;21.70;50.80;;;;;;5094283;28;20469;-72
2022/06/16 02:49:45;;;;;;;5.00;3.90;;;21.60;50.80;;;;;;5093834;28;20427;-72
2022/06/16 02:52:23;;;;;;;5.33;3.20;;;21.60;50.90;;;;;;5094053;28;20490;-72
2022/06/16 02:55:00;;;;;;;5.50;3.63;;;21.50;50.80;;;;;;5094210;28;20424;-72
2022/06/16 02:57:32;;;;;;;10.13;4.30;;;21.50;50.80;;;;;;5093803;28;20443;-72
2022/06/16 03:00:02;;;;;;;5.10;3.67;;;21.40;50.80;;;;;;5094137;28;20438;-72
2022/06/16 03:02:31;;;;;;;4.87;2.77;;;21.40;50.80;;;;;;5093418;28;20991;-72
2022/06/16 03:05:00;;;;;;;4.77;3.40;;;21.30;50.80;;;;;;5094069;28;20458;-72
2022/06/16 03:07:28;;;;;;;7.50;3.80;;;21.30;50.90;;;;;;5094574;28;20487;-72
2022/06/16 03:09:55;;;;;;;5.57;4.10;;;21.30;51.00;;;;;;5094375;28;20454;-72
2022/06/16 03:12:22;;;;;;;8.30;3.60;;;21.30;51.10;;;;;;5093874;28;20834;-72
2022/06/16 03:14:49;;;;;;;7.47;3.97;;;21.20;51.00;;;;;;5093911;28;20447;-72
2022/06/16 03:17:15;;;;;;;6.10;3.47;;;21.20;51.00;;;;;;5093437;28;20451;-72
2022/06/16 03:19:44;;;;;;;5.37;3.40;;;21.20;51.20;;;;;;5093772;28;20452;-72
2022/06/16 03:22:11;;;;;;;7.57;3.40;;;21.10;51.10;;;;;;5093669;28;20464;-72
2022/06/16 03:24:38;;;;;;;6.80;3.40;;;21.10;51.10;;;;;;5093822;28;20463;-72
2022/06/16 03:27:07;;;;;;;3.80;3.30;;;21.00;51.20;;;;;;5093673;28;20480;-72
2022/06/16 03:29:34;;;;;;;5.83;2.83;;;21.00;51.20;;;;;;5093739;28;20446;-72
2022/06/16 03:32:00;;;;;;;5.37;3.80;;;20.90;51.20;;;;;;5093585;28;20467;-72
2022/06/16 03:34:27;;;;;;;5.37;3.47;;;20.90;51.20;;;;;;5093357;28;20463;-72
2022/06/16 03:36:56;;;;;;;5.80;3.93;;;20.80;51.40;;;;;;5093326;28;20538;-72
2022/06/16 03:39:24;;;;;;;8.33;4.20;;;20.80;51.50;;;;;;5093522;28;20526;-72
2022/06/16 03:41:51;;;;;;;6.60;4.53;;;20.70;51.60;;;;;;5093434;28;20464;-72
2022/06/16 03:44:18;;;;;;;6.40;4.43;;;20.70;51.60;;;;;;5093599;28;20443;-72
2022/06/16 03:46:45;;;;;;;8.60;4.10;;;20.70;51.80;;;;;;5093284;28;20924;-72
2022/06/16 03:49:12;;;;;;;9.33;3.37;;;20.60;52.00;;;;;;5093397;28;20479;-72
2022/06/16 03:51:38;;;;;;;4.37;3.07;;;20.60;52.20;;;;;;5093352;28;20467;-72
2022/06/16 03:54:06;;;;;;;6.80;3.80;;;20.50;52.20;;;;;;5093484;28;20447;-72
2022/06/16 03:56:33;;;;;;;3.80;3.20;;;20.50;52.20;;;;;;5093453;28;20454;-72
2022/06/16 03:59:00;;;;;;;5.00;3.93;;;20.50;52.10;;;;;;5093346;28;20443;-72
2022/06/16 04:01:27;;;;;;;3.97;3.33;;;20.40;52.10;;;;;;5093010;28;20542;-72
2022/06/16 04:04:02;;;;;;;5.63;3.43;;;20.40;52.10;;;;;;5093460;28;20454;-72
2022/06/16 04:06:30;;;;;;;5.53;3.43;;;20.40;52.10;;;;;;5093465;28;20434;-71
2022/06/16 04:08:58;;;;;;;4.13;3.00;;;20.40;51.90;;;;;;5093436;28;20558;-72
2022/06/16 04:11:30;;;;;;;3.63;2.97;;;20.40;51.90;;;;;;5093330;28;20439;-72
2022/06/16 04:14:02;;;;;;;6.27;3.50;;;20.40;52.10;;;;;;5095086;28;20436;-71
2022/06/16 04:16:31;;;;;;;4.37;3.60;;;20.30;52.10;;;;;;5097457;28;20432;-72
2022/06/16 04:18:58;;;;;;;6.90;3.53;;;20.30;52.10;;;;;;5097246;28;20442;-71
2022/06/16 04:21:25;;;;;;;5.27;3.63;;;20.20;52.10;;;;;;5097194;28;20940;-72
2022/06/16 04:23:51;;;;;;;3.20;2.67;;;20.30;52.20;;;;;;5097215;28;20823;-71
2022/06/16 04:26:18;;;;;;;3.60;3.30;;;20.20;52.20;;;;;;5097067;28;20446;-71
2022/06/16 04:28:47;;;;;;;4.43;3.30;;;20.20;52.20;;;;;;5097247;28;20482;-71
2022/06/16 04:31:14;;;;;;;5.37;3.60;;;20.20;52.20;;;;;;5097025;28;20816;-71
2022/06/16 04:33:41;;;;;;;5.83;3.10;;;20.20;52.30;;;;;;5097493;28;20929;-71
2022/06/16 04:36:09;;;;;;;7.77;3.60;;;20.20;52.40;;;;;;5098640;28;20428;-71
2022/06/16 04:38:36;;;;;;;5.20;4.10;;;20.20;52.30;;;;;;5099008;28;20510;-71
2022/06/16 04:41:03;;;;;;;4.20;3.70;;;20.20;52.40;;;;;;5099481;28;20443;-71
2022/06/16 04:43:30;;;;;;;8.87;3.57;;;20.20;52.50;;;;;;5096710;28;20464;-71
2022/06/16 04:46:00;;;;;;;5.87;4.00;;;20.20;52.70;;;;;;5096802;28;20483;-72
2022/06/16 04:48:27;;;;;;;5.80;3.83;;;20.20;52.80;;;;;;5096506;28;20479;-71
2022/06/16 04:50:54;;;;;;;5.00;3.80;;;20.20;53.50;;;;;;5096543;28;20518;-71
2022/06/16 04:53:21;;;;;;;5.13;3.20;;;20.20;53.10;;;;;;5096535;28;20459;-71
2022/06/16 04:55:53;;;;;;;6.63;3.80;;;20.20;53.30;;;;;;5096995;28;20447;-71
2022/06/16 04:58:20;;;;;;;8.10;4.10;;;20.10;53.20;;;;;;5096945;28;20436;-72
2022/06/16 05:00:48;;;;;;;7.80;3.80;;;20.10;53.30;;;;;;5095950;28;20448;-72
2022/06/16 05:03:16;;;;;;;12.83;4.10;;;20.10;53.20;;;;;;5096249;28;20468;-71
2022/06/16 05:05:43;;;;;;;7.87;3.50;;;20.10;53.40;;;;;;5096192;28;20448;-72
2022/06/16 05:08:10;;;;;;;4.73;3.80;;;20.00;53.40;;;;;;5095780;28;20471;-72
2022/06/16 05:10:36;;;;;;;6.43;3.87;;;20.00;53.50;;;;;;5096088;28;20454;-71
2022/06/16 05:13:03;;;;;;;6.33;4.33;;;20.00;53.80;;;;;;5095833;28;20471;-71
2022/06/16 05:15:30;;;;;;;5.67;3.80;;;20.00;53.90;;;;;;5096039;28;20450;-71
2022/06/16 05:17:57;;;;;;;6.07;3.93;;;20.00;54.00;;;;;;5095692;28;20801;-71
2022/06/16 05:20:25;;;;;;;5.00;3.63;;;20.00;54.30;;;;;;5096055;28;20448;-72
2022/06/16 05:22:52;;;;;;;6.60;3.87;;;20.00;54.40;;;;;;5095662;28;20972;-71
2022/06/16 05:25:18;;;;;;;4.60;3.90;;;20.00;54.30;;;;;;5095620;28;20454;-71
2022/06/16 05:27:45;;;;;;;8.57;3.77;;;20.10;54.20;;;;;;5095851;28;20486;-71
2022/06/16 05:30:14;;;;;;;5.93;4.13;;;20.10;54.30;;;;;;5095533;28;20941;-71
2022/06/16 05:32:40;;;;;;;4.80;3.77;;;20.10;54.40;;;;;;5095637;28;20479;-72
2022/06/16 05:35:08;;;;;;;7.43;3.60;;;20.20;54.30;;;;;;5095391;28;20464;-71
2022/06/16 05:37:36;;;;;;;5.50;3.77;;;20.20;54.00;;;;;;5095769;28;20456;-71
2022/06/16 05:40:03;;;;;;;6.13;3.90;;;20.30;53.80;;;;;;5095626;28;20444;-71
2022/06/16 05:42:30;;;;;;;5.17;3.80;;;20.40;53.70;;;;;;5095434;28;20464;-71
2022/06/16 05:44:57;;;;;;;5.80;3.43;;;20.40;53.50;;;;;;5095675;28;20456;-72
2022/06/16 05:47:24;;;;;;;5.67;3.53;;;20.50;53.10;;;;;;5095716;28;20444;-72
2022/06/16 05:49:51;;;;;;;8.10;4.37;;;20.50;53.00;;;;;;5095366;28;20440;-72
2022/06/16 05:52:20;;;;;;;5.80;3.40;;;20.50;53.20;;;;;;5095223;28;20459;-72
2022/06/16 05:54:48;;;;;;;7.47;3.77;;;20.60;52.90;;;;;;5095208;28;20439;-72
2022/06/16 05:57:15;;;;;;;6.90;3.70;;;20.60;52.60;;;;;;5095196;28;20450;-72
2022/06/16 05:59:42;;;;;;;8.90;3.37;;;20.70;52.80;;;;;;5095207;28;20570;-72
2022/06/16 06:02:14;;;;;;;5.17;3.57;;;20.80;52.50;;;;;;5095072;28;20456;-72
2022/06/16 06:04:41;;;;;;;4.67;3.30;;;20.90;52.70;;;;;;5095192;28;20428;-72
2022/06/16 06:07:08;;;;;;;6.90;3.40;;;21.00;52.70;;;;;;5095016;28;20450;-72
2022/06/16 06:18:27;;;;;;;6.07;3.43;;;21.40;51.20;;;;;;5052781;28;20418;-73
2022/06/16 06:20:54;;;;;;;5.73;3.10;;;21.50;50.80;;;;;;5052082;28;20445;-71
2022/06/16 06:23:21;;;;;;;5.40;3.30;;;21.50;50.70;;;;;;5071497;28;20486;-71
2022/06/16 06:25:48;;;;;;;4.17;3.20;;;21.60;50.70;;;;;;5094348;28;20898;-71
2022/06/16 06:28:21;;;;;;;7.23;3.40;;;21.70;50.20;;;;;;5094611;28;20483;-71
2022/06/16 06:30:47;;;;;;;7.93;3.40;;;21.80;49.90;;;;;;5094273;28;20772;-71
2022/06/16 06:33:14;;;;;;;4.00;3.20;;;21.90;50.00;;;;;;5094388;28;20468;-71
2022/06/16 06:35:41;;;;;;;4.00;2.80;;;21.90;49.40;;;;;;5093740;28;20464;-71
2022/06/16 06:38:08;;;;;;;5.80;3.00;;;22.00;49.50;;;;;;5094193;28;20448;-71
2022/06/16 06:40:36;;;;;;;3.77;3.17;;;22.10;50.00;;;;;;5094411;28;20448;-73
2022/06/16 06:43:04;;;;;;;4.27;3.20;;;22.20;49.90;;;;;;5093945;28;20467;-73
2022/06/16 06:45:33;;;;;;;5.20;3.30;;;22.30;49.70;;;;;;5094409;28;20444;-74
2022/06/16 06:48:01;;;;;;;3.83;3.20;;;22.50;49.40;;;;;;5093814;28;20458;-74
2022/06/16 06:50:31;;;;;;;6.60;3.40;;;22.60;49.00;;;;;;5094292;28;20444;-73
2022/06/16 06:52:58;;;;;;;3.80;2.70;;;22.70;48.80;;;;;;5093843;28;20480;-72
2022/06/16 06:55:25;;;;;;;7.27;3.57;;;22.80;48.80;;;;;;5094347;28;20444;-72
2022/06/16 06:57:53;;;;;;;6.90;3.47;;;22.80;47.70;;;;;;5094257;28;20428;-71
2022/06/16 07:00:22;;;;;;;5.83;3.40;;;23.00;47.90;;;;;;5094376;28;20459;-71
2022/06/16 07:02:50;;;;;;;6.30;3.13;;;23.10;47.70;;;;;;5094318;28;20478;-71
2022/06/16 07:05:17;;;;;;;5.73;3.03;;;23.20;47.60;;;;;;5094744;28;20877;-71
2022/06/16 07:07:45;;;;;;;6.30;3.33;;;23.30;48.20;;;;;;5094595;28;20452;-71
2022/06/16 07:10:13;;;;;;;4.13;3.20;;;23.50;47.80;;;;;;5095114;28;20467;-71
2022/06/16 07:12:40;;;;;;;7.20;3.57;;;23.60;47.10;;;;;;5096732;28;20471;-72
2022/06/16 07:15:08;;;;;;;7.80;4.93;;;23.70;47.10;;;;;;5099787;28;20446;-72
2022/06/16 07:17:34;;;;;;;6.80;3.87;;;23.90;45.90;;;;;;5100183;28;20440;-72
2022/06/16 07:20:04;;;;;;;4.63;3.57;;;23.90;45.40;;;;;;5093888;28;20459;-72
2022/06/16 07:22:31;;;;;;;4.73;3.50;;;24.00;46.40;;;;;;5093326;28;20831;-70
2022/06/16 07:24:57;;;;;;;7.80;4.20;;;24.10;45.90;;;;;;5093711;28;20822;-70
2022/06/16 07:27:24;;;;;;;5.60;3.10;;;24.20;45.00;;;;;;5093723;28;20452;-70
2022/06/16 07:29:51;;;;;;;6.53;3.70;;;24.30;45.50;;;;;;5093594;28;20613;-70
2022/06/16 07:32:19;;;;;;;5.40;3.70;;;24.50;45.90;;;;;;5093667;28;20582;-71
2022/06/16 07:34:47;;;;;;;5.77;3.70;;;24.70;45.30;;;;;;5093255;28;20466;-71
2022/06/16 07:37:15;;;;;;;8.63;3.67;;;24.80;44.90;;;;;;5093596;28;20448;-71
2022/06/16 07:39:42;;;;;;;5.33;3.70;;;25.00;44.80;;;;;;5093642;28;20754;-71
2022/06/16 07:42:10;;;;;;;8.83;4.90;;;25.10;43.90;;;;;;5093447;28;20495;-71
2022/06/16 07:44:37;;;;;;;5.43;3.50;;;25.30;43.50;;;;;;5093528;28;20458;-71
2022/06/16 07:47:05;;;;;;;6.93;3.10;;;25.40;41.90;;;;;;5093900;28;20445;-71
2022/06/16 07:49:33;;;;;;;5.40;4.03;;;25.40;42.90;;;;;;5097360;28;20852;-71
2022/06/16 07:52:00;;;;;;;8.00;4.33;;;25.60;42.90;;;;;;5097372;28;20471;-71
2022/06/16 07:54:29;;;;;;;5.87;3.53;;;25.80;42.60;;;;;;5097298;28;20944;-71
2022/06/16 07:56:56;;;;;;;8.30;3.60;;;25.90;40.90;;;;;;5097635;28;20462;-71
2022/06/16 07:59:24;;;;;;;3.87;3.03;;;26.00;41.00;;;;;;5097534;28;20443;-71
2022/06/16 08:01:51;;;;;;;2.90;2.60;;;26.10;41.60;;;;;;5097918;28;20463;-70
2022/06/16 08:04:17;;;;;;;4.40;2.10;;;26.30;42.40;;;;;;5097612;28;20452;-70
2022/06/16 08:06:44;;;;;;;6.00;2.40;;;26.50;42.00;;;;;;5097446;28;20456;-70
2022/06/16 08:09:12;;;;;;;6.03;3.13;;;26.80;41.30;;;;;;5097037;28;20466;-71
2022/06/16 08:14:25;;;;;;;5.20;2.87;;;27.10;39.90;;;;;;5097977;28;20450;-71
2022/06/16 08:16:52;;;;;;;3.70;2.43;;;27.40;39.40;;;;;;5097726;28;20451;-71
2022/06/16 08:19:19;;;;;;;5.30;2.43;;;27.50;38.90;;;;;;5098034;28;20431;-70
2022/06/16 08:21:46;;;;;;;4.60;2.53;;;27.60;38.80;;;;;;5100242;28;20464;-70
2022/06/16 08:24:13;;;;;;;6.13;3.10;;;27.80;38.50;;;;;;5097372;28;20455;-70
2022/06/16 08:26:42;;;;;;;8.20;3.10;;;27.80;37.80;;;;;;5096965;28;20458;-71
2022/06/16 08:29:11;;;;;;;3.70;2.77;;;27.90;37.60;;;;;;5096778;28;20493;-71
2022/06/16 08:31:38;;;;;;;2.73;2.30;;;27.90;37.70;;;;;;5096870;28;20468;-71
2022/06/16 08:34:05;;;;;;;6.93;2.40;;;28.00;37.50;;;;;;5096575;28;20455;-71
2022/06/16 08:36:32;;;;;;;8.43;2.20;;;28.00;37.50;;;;;;5096789;28;20786;-71
2022/06/16 08:38:59;;;;;;;4.80;1.90;;;27.90;36.50;;;;;;5096851;28;20440;-71
2022/06/16 08:41:29;;;;;;;3.87;2.40;;;28.10;37.10;;;;;;5096606;28;20454;-71
2022/06/16 08:44:05;;;;;;;6.27;2.50;;;28.40;36.70;;;;;;5096601;28;20447;-71
2022/06/16 08:46:37;;;;;;;2.40;2.20;;;28.40;35.70;;;;;;5096714;28;20435;-71
2022/06/16 08:49:11;;;;;;;3.67;2.10;;;28.70;36.40;;;;;;5096710;28;20475;-71
2022/06/16 08:51:52;;;;;;;2.87;1.80;;;28.90;35.70;;;;;;5096476;28;20466;-71
2022/06/16 08:54:32;;;;;;;4.50;1.90;;;29.10;35.20;;;;;;5096617;28;20428;-71
2022/06/16 08:57:06;;;;;;;3.70;1.90;;;29.40;35.20;;;;;;5096446;28;20432;-71
2022/06/16 08:59:41;;;;;;;5.87;2.17;;;29.60;34.80;;;;;;5095832;28;20432;-71
2022/06/16 09:02:15;;;;;;;4.10;2.00;;;29.90;34.60;;;;;;5096365;28;20832;-71
2022/06/16 09:04:45;;;;;;;2.23;2.00;;;30.00;34.30;;;;;;5096023;28;20435;-71
2022/06/16 09:07:25;;;;;;;2.83;1.90;;;30.20;34.10;;;;;;5096364;28;20435;-72
2022/06/16 09:10:17;;;;;;;4.00;2.03;;;30.40;33.80;;;;;;5096035;28;20467;-72
2022/06/16 09:13:01;;;;;;;2.53;1.90;;;30.60;33.20;;;;;;5096189;28;20486;-72
2022/06/16 09:15:34;;;;;;;4.00;1.77;;;30.80;32.80;;;;;;5095905;28;20428;-71
2022/06/16 09:18:20;;;;;;;5.03;1.57;;;30.70;32.60;;;;;;5096078;28;20428;-71
2022/06/16 09:20:53;;;;;;;2.90;1.80;;;30.90;32.80;;;;;;5096024;28;20427;-71
2022/06/16 09:23:48;;;;;;;4.50;1.70;;;30.90;31.80;;;;;;5096032;28;20463;-71
2022/06/16 09:26:22;;;;;;;2.50;1.70;;;31.10;33.00;;;;;;5096604;28;20785;-71
2022/06/16 09:28:54;;;;;;;4.70;2.00;;;31.30;32.00;;;;;;5095919;28;20475;-72
2022/06/16 09:31:33;;;;;;;5.20;1.90;;;31.50;31.30;;;;;;5095886;28;20432;-71
2022/06/16 09:34:05;;;;;;;5.07;2.00;;;31.50;30.00;;;;;;5095762;28;20487;-71
2022/06/16 09:36:36;;;;;;;3.60;1.87;;;31.70;30.60;;;;;;5095604;28;20444;-72
2022/06/16 09:39:10;;;;;;;7.30;1.70;;;31.90;30.40;;;;;;5095591;28;20917;-72
2022/06/16 09:44:34;;;;;;;3.23;1.83;;;31.70;30.10;;;;;;5096109;28;20403;-73
2022/06/16 09:47:08;;;;;;;2.60;1.80;;;31.90;30.30;;;;;;5095827;28;20442;-72
2022/06/16 09:49:41;;;;;;;4.03;2.00;;;32.20;30.40;;;;;;5095808;28;20459;-72
2022/06/16 09:52:12;;;;;;;2.70;1.80;;;32.10;29.30;;;;;;5097723;28;20471;-72
2022/06/16 09:54:46;;;;;;;6.40;1.70;;;32.10;29.10;;;;;;5098877;28;20432;-72
2022/06/16 09:57:16;;;;;;;7.20;2.00;;;31.90;29.20;;;;;;5098084;28;20428;-71
2022/06/16 09:59:46;;;;;;;2.57;1.50;;;32.00;29.80;;;;;;5095540;28;20449;-73
2022/06/16 10:02:19;;;;;;;5.23;1.30;;;32.10;29.20;;;;;;5095136;28;20467;-71
2022/06/16 10:04:46;;;;;;;3.23;1.80;;;32.10;29.20;;;;;;5095348;28;20432;-72
2022/06/16 10:07:19;;;;;;;3.07;1.30;;;32.50;28.70;;;;;;5095111;28;20431;-72
2022/06/16 10:09:52;;;;;;;3.40;1.40;;;32.70;29.00;;;;;;5094851;28;20466;-72
2022/06/16 10:12:27;;;;;;;4.27;1.83;;;33.00;29.00;;;;;;5094139;28;20467;-71
2022/06/16 10:15:04;;;;;;;5.77;1.70;;;33.50;28.20;;;;;;5095232;28;20532;-72
2022/06/16 10:17:34;;;;;;;2.67;1.57;;;34.00;27.70;;;;;;5095101;28;20514;-73
2022/06/16 10:20:02;;;;;;;7.43;1.80;;;34.40;27.30;;;;;;5094906;28;20431;-72
2022/06/16 10:22:31;;;;;;;18.37;3.00;;;34.70;26.20;;;;;;5094616;28;20550;-72
2022/06/16 10:25:04;;;;;;;16.07;2.97;;;35.00;26.50;;;;;;5094924;28;20439;-73
2022/06/16 10:27:39;;;;;;;12.70;2.50;;;35.30;25.60;;;;;;5094435;28;20451;-73
2022/06/16 10:30:08;;;;;;;14.43;2.70;;;35.60;25.20;;;;;;5094634;28;20470;-71
2022/06/16 10:32:43;;;;;;;4.20;2.47;;;35.90;25.10;;;;;;5094510;28;20482;-71
2022/06/16 10:35:17;;;;;;;5.50;2.10;;;36.50;24.70;;;;;;5094327;28;20465;-71
2022/06/16 10:37:46;;;;;;;4.57;2.00;;;36.90;24.00;;;;;;5094630;28;20787;-72
2022/06/16 10:40:16;;;;;;;4.80;1.57;;;37.50;23.20;;;;;;5094472;28;20219;-72
2022/06/16 10:42:46;;;;;;;2.17;1.33;;;37.80;22.80;;;;;;5094448;28;20233;-72
2022/06/16 10:45:16;;;;;;;2.73;1.40;;;38.10;22.50;;;;;;5094549;28;20209;-72
2022/06/16 10:47:50;;;;;;;3.28;1.88;;;38.50;22.60;;;;;;5094476;28;20204;-72
2022/06/16 10:50:22;;;;;;;2.45;1.73;;;39.00;21.70;;;;;;5094280;28;20205;-72
2022/06/16 10:52:53;;;;;;;2.33;1.42;;;39.50;21.30;;;;;;5093960;28;20221;-72
2022/06/16 10:55:22;;;;;;;2.75;1.63;;;39.90;20.80;;;;;;5094399;28;20196;-72
2022/06/16 10:57:57;;;;;;;3.10;1.70;;;40.50;20.60;;;;;;5094507;28;20190;-72
2022/06/16 11:00:26;;;;;;;2.15;1.48;;;41.00;19.30;;;;;;5094233;28;20185;-72
2022/06/16 11:03:14;;;;;;;2.20;1.50;;;41.40;19.20;;;;;;5094107;28;20593;-72
2022/06/16 11:05:51;;;;;;;2.67;1.50;;;41.90;18.80;;;;;;5094156;28;20197;-72
2022/06/16 11:08:19;;;;;;;3.55;1.90;;;42.30;18.40;;;;;;5094092;28;20193;-72
2022/06/16 11:10:53;;;;;;;2.42;1.30;;;42.70;18.00;;;;;;5093865;28;20235;-72
2022/06/16 11:13:26;;;;;;;1.52;1.10;;;43.10;17.80;;;;;;5093677;28;20220;-72
2022/06/16 11:15:53;;;;;;;4.55;1.90;;;43.40;17.40;;;;;;5094012;28;20192;-72
2022/06/16 11:18:26;;;;;;;3.42;1.55;;;43.60;16.60;;;;;;5094119;28;20201;-73
2022/06/16 11:20:55;;;;;;;2.28;2.00;;;43.70;16.60;;;;;;5093612;28;20186;-72
2022/06/16 11:23:29;;;;;;;2.13;1.50;;;43.90;16.50;;;;;;5094518;28;20217;-72
2022/06/16 11:26:00;;;;;;;2.13;1.50;;;44.10;16.60;;;;;;5093487;28;20663;-72
2022/06/16 11:28:29;;;;;;;1.90;1.70;;;44.40;16.70;;;;;;5093491;28;20699;-72
2022/06/16 11:30:59;;;;;;;1.90;1.55;;;44.70;16.70;;;;;;5093734;28;20315;-72
2022/06/16 11:36:27;;;;;;;4.75;1.45;;;45.20;15.20;;;;;;5082765;28;20193;-73
2022/06/16 11:39:02;;;;;;;3.95;1.55;;;45.20;15.30;;;;;;5093905;28;20207;-73
2022/06/16 11:41:32;;;;;;;3.92;1.42;;;45.20;16.20;;;;;;5093669;28;20192;-72
2022/06/16 11:44:18;;;;;;;3.10;1.95;;;45.40;15.90;;;;;;5093529;28;20204;-72
2022/06/16 11:46:53;;;;;;;2.90;1.75;;;45.60;16.10;;;;;;5089313;28;20197;-72
2022/06/16 11:49:33;;;;;;;2.00;1.80;;;45.80;15.70;;;;;;5088075;28;20232;-72
2022/06/16 11:52:08;;;;;;;3.55;1.60;;;46.00;15.00;;;;;;5091504;28;20213;-73
2022/06/16 11:54:49;;;;;;;4.45;1.83;;;46.10;15.00;;;;;;5086972;28;20206;-73
2022/06/16 11:57:28;;;;;;;4.50;1.60;;;46.40;15.20;;;;;;5090089;28;20193;-73
2022/06/16 12:00:14;;;;;;;2.13;1.60;;;46.60;15.00;;;;;;5090268;28;20195;-73
2022/06/16 12:03:13;;;;;;;3.28;1.85;;;46.80;14.70;;;;;;5090503;28;20227;-73
2022/06/16 12:05:46;;;;;;;4.22;1.73;;;46.90;14.00;;;;;;5093416;28;20190;-73
2022/06/16 12:08:46;;;;;;;2.60;1.70;;;47.00;14.60;;;;;;5093228;28;20192;-75
2022/06/16 12:11:28;;;;;;;2.58;1.20;;;47.20;14.80;;;;;;5093427;28;20209;-74
2022/06/16 12:14:04;;;;;;;1.60;1.40;;;47.30;14.20;;;;;;5087713;28;20673;-72
2022/06/16 12:16:37;;;;;;;2.53;1.70;;;47.50;14.50;;;;;;5073212;28;20555;-72
2022/06/16 12:19:19;;;;;;;3.45;1.42;;;47.70;14.30;;;;;;5073047;28;20194;-72
2022/06/16 12:21:53;;;;;;;1.67;1.35;;;47.80;14.10;;;;;;5072790;28;20228;-72
2022/06/16 12:24:28;;;;;;;3.40;1.60;;;48.10;13.90;;;;;;5073369;28;20586;-71
2022/06/16 12:27:00;;;;;;;4.20;1.77;;;48.30;13.80;;;;;;5073517;28;20185;-71
2022/06/16 12:29:40;;;;;;;2.10;1.60;;;48.50;13.70;;;;;;5073826;28;20639;-71
2022/06/16 12:32:20;;;;;;;2.42;1.40;;;48.50;13.20;;;;;;5074292;28;20556;-72
2022/06/16 12:34:57;;;;;;;2.50;1.70;;;48.30;13.20;;;;;;5077025;28;20213;-72
2022/06/16 12:37:30;;;;;;;3.10;1.52;;;48.40;13.70;;;;;;5077726;28;20193;-72
2022/06/16 12:40:02;;;;;;;2.33;1.95;;;48.50;13.40;;;;;;5076607;28;20185;-72
2022/06/16 12:42:38;;;;;;;3.20;1.67;;;48.80;13.70;;;;;;5075930;28;20275;-72
2022/06/16 12:45:09;;;;;;;2.42;1.73;;;49.00;13.40;;;;;;5077378;28;20182;-72
2022/06/16 12:47:39;;;;;;;1.85;1.50;;;49.20;13.20;;;;;;5076409;28;20201;-72
2022/06/16 12:50:12;;;;;;;3.88;1.90;;;49.50;12.80;;;;;;5076340;28;20210;-72
2022/06/16 12:52:45;;;;;;;2.78;1.83;;;49.70;12.70;;;;;;5076117;28;20695;-72
2022/06/16 12:55:17;;;;;;;2.55;1.77;;;49.90;12.60;;;;;;5075901;28;20632;-72
2022/06/16 12:57:50;;;;;;;2.67;1.70;;;50.10;12.70;;;;;;5076213;28;20190;-72
2022/06/16 13:00:19;;;;;;;2.70;1.80;;;50.20;12.30;;;;;;5076153;28;20193;-72
2022/06/16 13:02:51;;;;;;;2.88;1.92;;;50.30;12.30;;;;;;5076065;28;20237;-72
2022/06/16 13:05:20;;;;;;;1.80;1.48;;;50.40;11.90;;;;;;5076106;28;20186;-73
2022/06/16 13:07:54;;;;;;;2.58;1.92;;;50.50;11.60;;;;;;5076036;28;20210;-74
2022/06/16 13:10:21;;;;;;;3.08;1.30;;;50.40;11.90;;;;;;5075997;28;20225;-74
2022/06/16 13:12:53;;;;;;;5.60;1.55;;;50.30;11.60;;;;;;5075585;28;20721;-73
2022/06/16 13:15:24;;;;;;;2.58;1.75;;;50.00;11.50;;;;;;5076014;28;20196;-74
2022/06/16 13:17:55;;;;;;;4.55;1.65;;;49.60;11.90;;;;;;5075981;28;20274;-74
2022/06/16 13:20:26;;;;;;;3.22;1.83;;;49.50;12.30;;;;;;5075946;28;20204;-74
2022/06/16 13:22:58;;;;;;;1.58;1.48;;;49.50;12.50;;;;;;5075906;28;20229;-73
2022/06/16 13:25:45;;;;;;;2.08;1.52;;;49.80;12.50;;;;;;5075498;28;20550;-72